METAR Data
IDs: Format: Raw Decoded Include TAF

Data at: 1217 UTC 09 Dec 2019

METAR for:KELA (Eagle Lake Arpt, TX, US)
Text:KELA 091155Z AUTO 21004KT 1 1/4SM BR OVC002 20/20 A2986 RMK AO2 T02040200 10205 20183
Temperature: 20.4°C ( 69°F)
Dewpoint: 20.0°C ( 68°F) [RH = 98%]
Pressure (altimeter):29.86 inches Hg (1011.3 mb)
Winds:from the SSW (210 degrees) at 5 MPH (4 knots; 2.1 m/s)
Visibility: 1.25 sm ( 2.01 km)
Ceiling:200 feet AGL
Clouds: overcast cloud deck at 200 feet AGL
Weather:BR (mist)
QC Flag:automated observation with no human augmentation

TAF for:KELA (Eagle Lake Arpt, TX, US)
Text:No data found